Aérodrome :
LOGIN :

S'inscrire | Disclaimer

   EN    FR    IT 

 










Légende :    VFR   VFR Marginal   IFR   IFR Intensif   IFR Très Intensif
Visi : 
Plafond : 
>= 8 km
>= 3000ft
5 à 8 km
1000 à 3000 ft
1500m à 5 km
500 à 1000 ft
800 à 1500m
200 à 500 ft
< 800m
< 200 ft
Symboles :   Orages  Brouillard  Fortes neiges  Fortes précipitations  Vent > 20 kt
SIGMETs :   Divers  Orages  Givrage  Turbulence  Onde Orograph.  Cendres Volcan.






- Altitude de l'aérodrome : 267 ft


EGDR - Culdrose Navy

DERNIER METAR :
  • 291050Z AUTO 25008KT 9999 // NCD 10/07 Q1013

METARs EXPIRÉS :
  • 291027Z 26006KT 9999 FEW014 BKN220 09/06 Q1013 BLU NOSIG RMK BLU BLU
  • 290950Z 27007KT 9999 FEW014 SCT220 08/05 Q1013 BLU NOSIG RMK BLU BLU
  • 290921Z 27008KT 9999 FEW014 SCT120 08/05 Q1013 BLU NOSIG RMK BLU BLU
  • 290850Z AUTO 27007KT 9999 // BKN120/// 08/05 Q1013
  • 290823Z 27008KT 9999 FEW014 BKN120 08/05 Q1012 NOSIG RMK BLU BLU

TAF TAF EGDR
Valide du 29 à 09h jusqu'au 29 à 18h UTC


290745Z 2909/2918 27010G20KT 9999 FEW020 SCT030
TEMPO 2909/2916 8000 -SHRA SCT020



MET'MAP, la Météo Aéronautique d'un coup d'oeil ! - Copyright ORBIFLY Décembre 2007 - Disclaimer

ORBIFLY MET'MAP TEAM :

Programmation & Développement : Alexandra Zaïnal
Sur une idée originale de : Baudouin d'Aumeries
Assistance à la programmation : Marc-Olivier Méhu
Soutien technique & logistique : Manuel Goepfert

Contact : metmap@orbifly.com




SOURCES & CREDITS :

   NOAA